Time;durP1;ratioP1;P1;durP2;ratioP2;P2;SDS_P1;SDS_P2;PMS_P1;PMS_P2;Temp;Humidity;BMP_temperature;BMP_pressure;BME280_temperature;BME280_humidity;BME280_pressure;Samples;Min_cycle;Max_cycle;Signal;HPM_P1;HPM_P2
2021/06/16 00:01:37;;;;;;;6.57;3.05;;;16.10;99.90;;;;;;5031439;28;20045;-79
2021/06/16 00:04:06;;;;;;;9.32;3.33;;;16.00;99.90;;;;;;5049600;28;20045;-79
2021/06/16 00:06:34;;;;;;;8.30;3.33;;;16.00;99.90;;;;;;5042028;28;20055;-78
2021/06/16 00:09:02;;;;;;;6.45;3.25;;;16.00;99.90;;;;;;5071053;28;20055;-79
2021/06/16 00:11:29;;;;;;;9.82;3.40;;;15.90;99.90;;;;;;5044579;28;20045;-78
2021/06/16 00:13:56;;;;;;;11.95;3.85;;;15.90;99.90;;;;;;5038126;28;20503;-79
2021/06/16 00:16:23;;;;;;;9.50;3.28;;;15.90;99.90;;;;;;5041035;28;20053;-79
2021/06/16 00:18:50;;;;;;;15.32;3.40;;;15.90;99.90;;;;;;5039022;28;20053;-78
2021/06/16 00:21:17;;;;;;;6.75;3.15;;;15.80;99.90;;;;;;5038037;28;20084;-78
2021/06/16 00:23:44;;;;;;;10.10;3.50;;;15.80;99.90;;;;;;5037741;28;20048;-79
2021/06/16 00:26:11;;;;;;;6.78;3.13;;;15.70;99.90;;;;;;5042597;28;20052;-79
2021/06/16 00:28:37;;;;;;;11.23;3.40;;;15.70;99.90;;;;;;5046111;28;20063;-79
2021/06/16 00:31:05;;;;;;;9.95;3.92;;;15.70;99.90;;;;;;5035501;28;20059;-79
2021/06/16 00:33:32;;;;;;;9.48;3.17;;;15.60;99.90;;;;;;5041602;28;20053;-79
2021/06/16 00:35:59;;;;;;;8.45;3.53;;;15.60;99.90;;;;;;5057381;28;20057;-79
2021/06/16 00:38:27;;;;;;;12.27;3.42;;;15.60;99.90;;;;;;5038071;28;20108;-79
2021/06/16 00:40:55;;;;;;;8.20;3.30;;;15.50;99.90;;;;;;5032692;28;20050;-79
2021/06/16 00:43:22;;;;;;;12.18;3.97;;;15.50;99.90;;;;;;5043567;28;20471;-79
2021/06/16 00:45:49;;;;;;;8.63;3.22;;;15.50;99.90;;;;;;5044714;28;20056;-79
2021/06/16 00:48:16;;;;;;;14.43;3.40;;;15.50;99.90;;;;;;5043404;28;20057;-79
2021/06/16 00:50:44;;;;;;;8.20;3.53;;;15.40;99.90;;;;;;5036767;28;20045;-79
2021/06/16 00:53:11;;;;;;;9.80;3.60;;;15.40;99.90;;;;;;5036370;28;20055;-79
2021/06/16 00:55:38;;;;;;;11.95;3.47;;;15.40;99.90;;;;;;5034463;28;20053;-79
2021/06/16 00:58:07;;;;;;;8.85;3.63;;;15.30;99.90;;;;;;5041175;28;20053;-79
2021/06/16 01:00:59;;;;;;;10.70;3.22;;;15.20;99.90;;;;;;5035946;28;20061;-79
2021/06/16 01:03:42;;;;;;;9.18;3.28;;;15.20;99.90;;;;;;5041841;28;20400;-78
2021/06/16 01:06:14;;;;;;;8.50;4.03;;;15.20;99.90;;;;;;5071768;28;20503;-80
2021/06/16 01:09:04;;;;;;;6.38;3.22;;;15.20;99.90;;;;;;5037458;28;20054;-79
2021/06/16 01:11:36;;;;;;;10.43;3.72;;;15.20;99.90;;;;;;5042292;28;20056;-79
2021/06/16 01:14:12;;;;;;;11.13;4.25;;;15.20;99.90;;;;;;5075081;28;20059;-79
2021/06/16 01:16:50;;;;;;;7.25;3.35;;;15.20;99.90;;;;;;5034354;28;20056;-79
2021/06/16 01:19:50;;;;;;;11.02;3.42;;;15.10;99.90;;;;;;5031877;28;20049;-79
2021/06/16 01:22:32;;;;;;;11.15;4.05;;;15.10;99.90;;;;;;5036072;28;20055;-78
2021/06/16 01:25:04;;;;;;;6.97;3.65;;;15.00;99.90;;;;;;5039195;28;20043;-78
2021/06/16 01:27:31;;;;;;;9.32;4.13;;;15.00;99.90;;;;;;5040117;28;20510;-79
2021/06/16 01:30:00;;;;;;;6.30;3.47;;;14.90;99.90;;;;;;5042785;28;20501;-79
2021/06/16 01:32:27;;;;;;;6.47;3.58;;;14.90;99.90;;;;;;5039874;28;20041;-79
2021/06/16 01:34:54;;;;;;;10.18;3.78;;;14.90;99.90;;;;;;5031979;28;21032;-78
2021/06/16 01:37:21;;;;;;;6.30;3.78;;;14.90;99.90;;;;;;5036011;28;20049;-79
2021/06/16 01:39:48;;;;;;;13.70;5.50;;;14.90;99.90;;;;;;5072680;28;20079;-79
2021/06/16 01:42:18;;;;;;;8.35;4.22;;;14.90;99.90;;;;;;5054114;28;20386;-79
2021/06/16 01:44:46;;;;;;;9.02;4.18;;;14.80;99.90;;;;;;5039729;28;20072;-78
2021/06/16 01:47:14;;;;;;;10.68;4.63;;;14.80;99.90;;;;;;5042005;28;20048;-79
2021/06/16 01:49:41;;;;;;;6.45;3.95;;;14.80;99.90;;;;;;5046654;28;20060;-78
2021/06/16 01:52:08;;;;;;;6.35;4.70;;;14.80;99.90;;;;;;5042120;28;20055;-78
2021/06/16 01:54:36;;;;;;;7.78;3.85;;;14.80;99.90;;;;;;5042749;28;20053;-78
2021/06/16 01:57:05;;;;;;;10.55;4.05;;;14.80;99.90;;;;;;5044223;28;20091;-78
2021/06/16 01:59:33;;;;;;;15.43;4.50;;;14.80;99.90;;;;;;5038985;28;20056;-79
2021/06/16 02:02:00;;;;;;;12.38;4.82;;;14.70;99.90;;;;;;5046237;28;20109;-79
2021/06/16 02:04:27;;;;;;;6.85;4.22;;;14.70;99.90;;;;;;5043726;28;20052;-79
2021/06/16 02:07:03;;;;;;;16.33;5.55;;;14.70;99.90;;;;;;5040136;28;20045;-79
2021/06/16 02:09:33;;;;;;;5.97;3.53;;;14.60;99.90;;;;;;5053767;28;20156;-78
2021/06/16 02:12:01;;;;;;;9.93;4.28;;;14.60;99.90;;;;;;5039522;28;20732;-79
2021/06/16 02:14:29;;;;;;;10.38;4.80;;;14.60;99.90;;;;;;5037068;28;21255;-79
2021/06/16 02:17:04;;;;;;;10.00;4.03;;;14.60;99.90;;;;;;5037901;28;20059;-79
2021/06/16 02:19:33;;;;;;;9.02;4.38;;;14.50;99.90;;;;;;5044284;28;20048;-79
2021/06/16 02:22:01;;;;;;;11.48;5.68;;;14.50;99.90;;;;;;5073377;28;20048;-79
2021/06/16 02:24:28;;;;;;;8.93;4.43;;;14.50;99.90;;;;;;5041962;28;20056;-79
2021/06/16 02:26:55;;;;;;;9.88;4.20;;;14.50;99.90;;;;;;5041127;28;20045;-79
2021/06/16 02:29:24;;;;;;;14.45;5.28;;;14.50;99.90;;;;;;5044567;28;20054;-79
2021/06/16 02:31:51;;;;;;;14.88;5.80;;;14.40;99.90;;;;;;5041974;28;20485;-79
2021/06/16 02:34:19;;;;;;;6.68;4.53;;;14.40;99.90;;;;;;5039827;28;20053;-79
2021/06/16 02:36:48;;;;;;;12.50;5.05;;;14.40;99.90;;;;;;5045382;28;20045;-79
2021/06/16 02:39:21;;;;;;;12.63;4.53;;;14.40;99.90;;;;;;5053011;28;20055;-79
2021/06/16 02:41:49;;;;;;;12.55;5.50;;;14.40;99.90;;;;;;5039487;28;20070;-79
2021/06/16 02:44:16;;;;;;;11.80;5.00;;;14.40;99.90;;;;;;5039634;28;20061;-79
2021/06/16 02:46:48;;;;;;;7.38;4.93;;;14.30;99.90;;;;;;5054588;28;20053;-78
2021/06/16 02:49:17;;;;;;;15.00;5.18;;;14.30;99.90;;;;;;5043464;28;20049;-79
2021/06/16 02:51:45;;;;;;;12.15;5.22;;;14.30;99.90;;;;;;5045773;28;20148;-79
2021/06/16 02:54:16;;;;;;;12.05;5.10;;;14.30;99.90;;;;;;5040123;28;20420;-79
2021/06/16 02:56:44;;;;;;;14.27;5.28;;;14.30;99.90;;;;;;5041759;28;20040;-79
2021/06/16 02:59:13;;;;;;;10.48;5.70;;;14.30;99.90;;;;;;5040622;28;20091;-79
2021/06/16 03:01:42;;;;;;;10.25;5.25;;;14.30;99.90;;;;;;5070885;28;20463;-78
2021/06/16 03:04:11;;;;;;;9.00;5.22;;;14.30;99.90;;;;;;5043100;28;20058;-78
2021/06/16 03:06:40;;;;;;;14.90;6.07;;;14.20;99.90;;;;;;5056783;28;20045;-81
2021/06/16 03:09:07;;;;;;;10.55;5.80;;;14.20;99.90;;;;;;5071371;28;20096;-79
2021/06/16 03:11:34;;;;;;;19.23;5.57;;;14.20;99.90;;;;;;5038761;28;20045;-77
2021/06/16 03:14:02;;;;;;;10.23;5.00;;;14.10;99.90;;;;;;5036963;28;20052;-78
2021/06/16 03:16:30;;;;;;;9.23;4.93;;;14.10;99.90;;;;;;5040329;28;20059;-77
2021/06/16 03:18:58;;;;;;;8.85;5.32;;;14.10;99.90;;;;;;5042442;28;20099;-78
2021/06/16 03:21:26;;;;;;;11.20;5.68;;;14.10;99.90;;;;;;5034598;28;20045;-78
2021/06/16 03:23:54;;;;;;;12.45;5.15;;;14.10;99.90;;;;;;5076763;28;20389;-79
2021/06/16 03:26:23;;;;;;;12.02;5.32;;;14.10;99.90;;;;;;5076836;28;20393;-79
2021/06/16 03:28:51;;;;;;;12.65;5.22;;;14.10;99.90;;;;;;5040800;28;20045;-78
2021/06/16 03:31:18;;;;;;;9.55;4.68;;;14.10;99.90;;;;;;5038673;28;20050;-79
2021/06/16 03:33:47;;;;;;;10.00;5.63;;;14.10;99.90;;;;;;5039920;28;20056;-78
2021/06/16 03:36:16;;;;;;;11.95;5.07;;;14.10;99.90;;;;;;5042337;28;20053;-79
2021/06/16 03:38:45;;;;;;;10.27;5.28;;;14.10;99.90;;;;;;5037675;28;20055;-78
2021/06/16 03:41:13;;;;;;;10.27;5.32;;;14.10;99.90;;;;;;5039495;28;20112;-79
2021/06/16 03:43:41;;;;;;;11.95;5.22;;;14.00;99.90;;;;;;5056008;28;20051;-79
2021/06/16 03:46:09;;;;;;;9.73;5.10;;;14.00;99.90;;;;;;5043807;28;20080;-79
2021/06/16 03:48:38;;;;;;;17.17;7.00;;;14.00;99.90;;;;;;5041063;28;20049;-79
2021/06/16 03:51:06;;;;;;;8.02;6.05;;;14.10;99.90;;;;;;5037543;28;20063;-79
2021/06/16 03:53:33;;;;;;;12.82;5.55;;;14.10;99.90;;;;;;5037974;28;20049;-79
2021/06/16 03:56:00;;;;;;;10.70;6.18;;;14.10;99.90;;;;;;5038025;28;20053;-79
2021/06/16 03:58:27;;;;;;;13.75;6.55;;;14.10;99.90;;;;;;5040947;28;20063;-79
2021/06/16 04:00:55;;;;;;;9.15;5.90;;;14.10;99.90;;;;;;5054724;28;20388;-79
2021/06/16 04:03:22;;;;;;;9.02;5.57;;;14.10;99.90;;;;;;5046487;28;20063;-79
2021/06/16 04:05:49;;;;;;;6.20;5.22;;;14.20;99.90;;;;;;5035885;28;20645;-79
2021/06/16 04:08:16;;;;;;;13.27;6.00;;;14.20;99.90;;;;;;5056035;28;20128;-79
2021/06/16 04:10:45;;;;;;;9.93;5.50;;;14.20;99.90;;;;;;5035446;28;20041;-79
2021/06/16 04:13:12;;;;;;;12.50;5.50;;;14.20;99.90;;;;;;5037052;28;20477;-78
2021/06/16 04:15:39;;;;;;;15.48;6.65;;;14.30;99.90;;;;;;5022760;28;20056;-78
2021/06/16 04:18:07;;;;;;;14.00;5.40;;;14.30;99.90;;;;;;5040046;28;20041;-79
2021/06/16 04:20:34;;;;;;;13.80;5.28;;;14.40;99.90;;;;;;5041661;28;20045;-79
2021/06/16 04:23:00;;;;;;;10.77;5.40;;;14.40;99.90;;;;;;5042797;28;20045;-79
2021/06/16 04:25:27;;;;;;;11.40;5.47;;;14.50;99.90;;;;;;5039591;28;20041;-79
2021/06/16 04:27:55;;;;;;;11.32;5.68;;;14.50;99.90;;;;;;5038796;28;20044;-78
2021/06/16 04:30:23;;;;;;;9.85;5.60;;;14.60;99.90;;;;;;5041512;28;20048;-80
2021/06/16 04:32:51;;;;;;;9.13;5.00;;;14.60;99.90;;;;;;5039997;28;20053;-79
2021/06/16 04:35:19;;;;;;;8.13;5.53;;;14.70;99.90;;;;;;5043758;28;20049;-79
2021/06/16 04:37:47;;;;;;;13.23;5.97;;;14.70;99.90;;;;;;5045344;28;20045;-79
2021/06/16 04:40:14;;;;;;;16.10;5.93;;;14.80;99.90;;;;;;5031415;28;20060;-78
2021/06/16 04:42:41;;;;;;;14.13;6.28;;;14.90;99.90;;;;;;5035572;28;20045;-79
2021/06/16 04:45:08;;;;;;;9.30;6.15;;;15.00;99.90;;;;;;5041893;28;20056;-80
2021/06/16 04:47:35;;;;;;;11.75;6.10;;;15.00;99.90;;;;;;5038269;28;20075;-79
2021/06/16 04:50:10;;;;;;;17.23;6.13;;;15.10;99.90;;;;;;5037478;28;20045;-79
2021/06/16 04:52:37;;;;;;;10.07;5.90;;;15.10;99.90;;;;;;5028291;28;20049;-79
2021/06/16 04:55:10;;;;;;;15.77;6.05;;;15.20;99.90;;;;;;5048484;28;20049;-79
2021/06/16 04:57:38;;;;;;;12.88;5.80;;;15.30;99.90;;;;;;5033677;28;20497;-79
2021/06/16 05:00:06;;;;;;;9.90;5.72;;;15.40;99.90;;;;;;5027115;28;20072;-79
2021/06/16 05:02:36;;;;;;;12.05;5.80;;;15.50;99.90;;;;;;5038256;28;20068;-79
2021/06/16 05:05:04;;;;;;;8.73;5.63;;;15.70;99.90;;;;;;5052243;28;20046;-79
2021/06/16 05:07:31;;;;;;;7.65;6.00;;;15.70;99.90;;;;;;5035347;28;20054;-79
2021/06/16 05:09:58;;;;;;;14.43;5.75;;;15.80;99.90;;;;;;5039190;28;20048;-80
2021/06/16 05:12:24;;;;;;;13.27;5.70;;;15.90;99.90;;;;;;5039016;28;20081;-79
2021/06/16 05:14:51;;;;;;;15.90;5.65;;;16.00;99.90;;;;;;5040463;28;20048;-78
2021/06/16 05:17:19;;;;;;;8.43;5.40;;;16.10;99.90;;;;;;5024660;28;20085;-79
2021/06/16 05:19:46;;;;;;;12.77;5.60;;;16.10;99.90;;;;;;5061479;28;20054;-79
2021/06/16 05:22:14;;;;;;;11.50;5.05;;;16.30;99.90;;;;;;5047937;28;20053;-79
2021/06/16 05:24:42;;;;;;;12.13;5.53;;;16.40;99.90;;;;;;5043325;28;20061;-80
2021/06/16 05:27:14;;;;;;;13.55;5.70;;;16.40;99.90;;;;;;5056861;28;20056;-79
2021/06/16 05:29:41;;;;;;;7.95;5.30;;;16.50;99.90;;;;;;5041937;28;20055;-79
2021/06/16 05:32:09;;;;;;;10.68;6.07;;;16.60;99.90;;;;;;5041554;28;20115;-80
2021/06/16 05:34:37;;;;;;;18.63;7.30;;;16.80;99.90;;;;;;5047537;28;20052;-79
2021/06/16 05:37:07;;;;;;;13.00;5.50;;;16.80;99.90;;;;;;5040785;28;20052;-79
2021/06/16 05:39:34;;;;;;;13.23;5.65;;;17.00;99.90;;;;;;5040937;28;20041;-79
2021/06/16 05:42:02;;;;;;;11.48;5.57;;;17.10;99.90;;;;;;5078896;28;20064;-79
2021/06/16 05:44:28;;;;;;;10.93;4.70;;;17.30;99.90;;;;;;5057910;28;20056;-79
2021/06/16 05:46:55;;;;;;;8.57;6.22;;;17.40;99.90;;;;;;5043767;28;20242;-79
2021/06/16 05:49:22;;;;;;;11.00;6.05;;;17.50;99.90;;;;;;5045550;28;20059;-79
2021/06/16 05:51:49;;;;;;;15.65;5.95;;;17.60;99.90;;;;;;5040609;28;20112;-79
2021/06/16 05:54:16;;;;;;;10.13;4.90;;;17.70;99.90;;;;;;5051182;28;20048;-79
2021/06/16 05:56:43;;;;;;;10.95;5.88;;;17.80;99.90;;;;;;5046206;28;20056;-79
2021/06/16 05:59:09;;;;;;;12.85;5.50;;;17.90;99.90;;;;;;5045650;28;20059;-79
2021/06/16 06:01:37;;;;;;;12.68;4.95;;;18.10;99.90;;;;;;5047827;28;20480;-79
2021/06/16 06:04:06;;;;;;;13.75;5.18;;;18.20;99.90;;;;;;5042432;28;20052;-80
2021/06/16 06:06:36;;;;;;;13.48;5.65;;;18.30;99.90;;;;;;5056102;28;20098;-79
2021/06/16 06:09:05;;;;;;;14.05;5.90;;;18.50;99.90;;;;;;5043559;28;20600;-79
2021/06/16 06:11:34;;;;;;;13.18;5.68;;;18.50;99.90;;;;;;5073109;28;20117;-78
2021/06/16 06:14:02;;;;;;;8.95;5.18;;;18.70;99.90;;;;;;5045475;28;20049;-79
2021/06/16 06:16:29;;;;;;;12.07;4.97;;;18.80;99.90;;;;;;5046909;28;20056;-79
2021/06/16 06:18:56;;;;;;;9.85;5.30;;;18.90;99.90;;;;;;5040720;28;20041;-79
2021/06/16 06:21:23;;;;;;;9.10;4.30;;;19.10;99.90;;;;;;5048301;28;20052;-79
2021/06/16 06:23:51;;;;;;;9.68;4.70;;;19.30;99.90;;;;;;5047540;28;20103;-80
2021/06/16 06:26:18;;;;;;;12.38;4.60;;;19.40;99.90;;;;;;5039658;28;20114;-79
2021/06/16 06:28:44;;;;;;;11.98;5.00;;;19.60;99.30;;;;;;5040761;28;20049;-79
2021/06/16 06:31:11;;;;;;;10.18;4.38;;;19.70;99.70;;;;;;5042308;28;20057;-79
2021/06/16 06:33:38;;;;;;;9.73;4.72;;;19.90;99.50;;;;;;5041960;28;20404;-79
2021/06/16 06:36:05;;;;;;;10.43;4.57;;;20.10;98.70;;;;;;5044509;28;20380;-79
2021/06/16 06:38:31;;;;;;;9.90;4.35;;;20.10;98.40;;;;;;5043544;28;20051;-79
2021/06/16 06:40:58;;;;;;;9.82;4.10;;;20.20;98.40;;;;;;5045366;28;20867;-79
2021/06/16 06:43:25;;;;;;;11.85;4.55;;;20.40;98.40;;;;;;5034490;28;20061;-78
2021/06/16 06:45:52;;;;;;;12.00;4.47;;;20.50;97.70;;;;;;5044862;28;20512;-81
2021/06/16 06:48:18;;;;;;;10.52;4.55;;;20.70;97.50;;;;;;5048248;28;20435;-78
2021/06/16 06:50:45;;;;;;;9.75;4.05;;;20.80;97.40;;;;;;5042717;28;20051;-81
2021/06/16 06:53:14;;;;;;;8.52;3.85;;;21.00;96.80;;;;;;5050046;28;20059;-78
2021/06/16 06:55:42;;;;;;;7.80;4.00;;;21.10;96.60;;;;;;5024181;28;20049;-81
2021/06/16 06:58:10;;;;;;;12.55;4.97;;;21.30;96.70;;;;;;5044394;28;20035;-81
2021/06/16 07:00:36;;;;;;;10.00;4.90;;;21.40;96.10;;;;;;5044283;28;20045;-81
2021/06/16 07:03:03;;;;;;;10.82;4.10;;;21.50;96.00;;;;;;5048425;28;20056;-79
2021/06/16 07:05:30;;;;;;;5.93;3.80;;;21.60;95.40;;;;;;5044168;28;20141;-80
2021/06/16 07:07:56;;;;;;;8.30;4.25;;;21.70;95.80;;;;;;5038955;28;20055;-80
2021/06/16 07:10:23;;;;;;;12.38;4.28;;;21.80;95.00;;;;;;5040169;28;20503;-80
2021/06/16 07:12:50;;;;;;;13.90;4.15;;;21.90;95.20;;;;;;5037719;28;20140;-80
2021/06/16 07:15:17;;;;;;;5.47;3.72;;;22.00;94.40;;;;;;5039056;28;20060;-80
2021/06/16 07:17:44;;;;;;;7.85;3.63;;;22.10;94.90;;;;;;5044411;28;20075;-80
2021/06/16 07:20:12;;;;;;;7.93;3.42;;;22.20;93.70;;;;;;5047910;28;20058;-80
2021/06/16 07:22:39;;;;;;;8.93;4.25;;;22.40;94.20;;;;;;5041700;28;20045;-80
2021/06/16 07:25:07;;;;;;;7.85;3.83;;;22.50;93.90;;;;;;5060224;28;20140;-80
2021/06/16 07:27:34;;;;;;;4.85;3.22;;;22.70;92.80;;;;;;5046120;28;20059;-80
2021/06/16 07:30:01;;;;;;;6.30;3.50;;;22.80;92.90;;;;;;5041087;28;20523;-80
2021/06/16 07:32:28;;;;;;;18.25;3.63;;;22.90;92.50;;;;;;5042435;28;20101;-80
2021/06/16 07:34:54;;;;;;;5.88;3.40;;;23.00;92.70;;;;;;5043083;28;20133;-80
2021/06/16 07:37:21;;;;;;;4.85;3.40;;;23.20;91.40;;;;;;5039412;28;20059;-80
2021/06/16 07:39:48;;;;;;;7.15;3.28;;;23.30;91.40;;;;;;5052881;28;20059;-80
2021/06/16 07:42:14;;;;;;;5.28;2.80;;;23.40;91.80;;;;;;5047098;28;20041;-81
2021/06/16 07:44:41;;;;;;;12.93;4.07;;;23.50;91.90;;;;;;5035598;28;20386;-80
2021/06/16 07:47:08;;;;;;;8.80;3.00;;;23.70;90.70;;;;;;5042007;28;20140;-80
2021/06/16 07:49:35;;;;;;;5.60;3.38;;;23.70;90.40;;;;;;5052771;28;20144;-80
2021/06/16 07:52:02;;;;;;;10.10;3.28;;;23.80;89.40;;;;;;5052403;28;20069;-80
2021/06/16 07:54:29;;;;;;;7.22;2.60;;;23.90;88.40;;;;;;5041751;28;20053;-79
2021/06/16 07:56:55;;;;;;;6.60;3.13;;;24.00;89.30;;;;;;5041293;28;20404;-80
2021/06/16 07:59:22;;;;;;;14.57;2.85;;;24.10;86.90;;;;;;5036529;28;20051;-79
2021/06/16 08:01:49;;;;;;;4.75;2.35;;;24.10;87.40;;;;;;5039878;28;20057;-80
2021/06/16 08:04:19;;;;;;;8.77;2.90;;;24.20;86.90;;;;;;5045088;28;20052;-80
2021/06/16 08:06:46;;;;;;;5.50;2.35;;;24.40;84.80;;;;;;5041366;28;20976;-80
2021/06/16 08:09:13;;;;;;;4.45;2.30;;;24.40;85.10;;;;;;5040817;28;20496;-80
2021/06/16 08:11:39;;;;;;;11.75;2.30;;;24.40;82.80;;;;;;5027234;28;20041;-80
2021/06/16 08:14:06;;;;;;;7.68;2.60;;;24.40;83.20;;;;;;5046420;28;20056;-80
2021/06/16 08:16:34;;;;;;;6.85;2.40;;;24.50;85.00;;;;;;5035789;28;20425;-80
2021/06/16 08:19:02;;;;;;;7.97;2.50;;;24.60;83.30;;;;;;5050500;28;20077;-80
2021/06/16 08:21:30;;;;;;;4.00;2.05;;;24.70;79.70;;;;;;5035127;28;20059;-80
2021/06/16 08:23:56;;;;;;;7.38;1.85;;;24.80;80.80;;;;;;5040576;28;20043;-80
2021/06/16 08:26:24;;;;;;;2.15;1.70;;;24.90;80.20;;;;;;5040770;28;20045;-80
2021/06/16 08:28:50;;;;;;;4.35;1.75;;;25.00;79.40;;;;;;5038868;28;20708;-80
2021/06/16 08:31:17;;;;;;;3.22;1.80;;;25.00;76.90;;;;;;5036389;28;20049;-80
2021/06/16 08:33:44;;;;;;;4.32;2.00;;;25.10;78.10;;;;;;5040821;28;20110;-80
2021/06/16 08:36:11;;;;;;;6.00;1.85;;;25.20;76.80;;;;;;5035307;28;20131;-80
2021/06/16 08:38:38;;;;;;;4.90;1.77;;;25.20;75.70;;;;;;5039634;28;20424;-80
2021/06/16 08:41:07;;;;;;;3.10;1.60;;;25.20;77.10;;;;;;5038409;28;20040;-80
2021/06/16 08:43:47;;;;;;;5.72;3.03;;;25.40;76.40;;;;;;5035672;28;20045;-80
2021/06/16 08:46:15;;;;;;;5.32;1.95;;;25.50;75.00;;;;;;5036549;28;20051;-80
2021/06/16 08:48:43;;;;;;;4.97;1.70;;;25.50;75.00;;;;;;5038535;28;20053;-80
2021/06/16 08:51:14;;;;;;;3.15;2.38;;;25.50;76.00;;;;;;5041068;28;20052;-79
2021/06/16 08:53:42;;;;;;;9.57;2.40;;;25.60;74.60;;;;;;5044540;28;20405;-80
2021/06/16 08:56:10;;;;;;;3.17;2.20;;;25.60;76.20;;;;;;5041017;28;20057;-79
2021/06/16 08:58:38;;;;;;;8.60;2.25;;;25.70;74.60;;;;;;5044798;28;20048;-79
2021/06/16 09:01:07;;;;;;;3.80;2.28;;;25.80;75.80;;;;;;5041375;28;20057;-80
2021/06/16 09:03:35;;;;;;;4.40;2.55;;;26.00;75.40;;;;;;5044161;28;20113;-80
2021/06/16 09:06:07;;;;;;;2.30;2.05;;;26.10;75.00;;;;;;5035449;28;20053;-80
2021/06/16 09:08:52;;;;;;;3.17;2.70;;;26.20;75.80;;;;;;5072995;28;20049;-80
2021/06/16 09:11:21;;;;;;;4.68;2.50;;;26.30;75.20;;;;;;5032491;28;20132;-80
2021/06/16 09:13:48;;;;;;;5.90;2.65;;;26.40;73.00;;;;;;5040798;28;20045;-81
2021/06/16 09:16:29;;;;;;;4.30;2.70;;;26.50;75.60;;;;;;5072407;28;20489;-80
2021/06/16 09:18:58;;;;;;;5.68;2.50;;;26.60;74.70;;;;;;5039541;28;20045;-80
2021/06/16 09:21:36;;;;;;;7.63;2.55;;;26.60;75.00;;;;;;5038275;28;20051;-80
2021/06/16 09:24:05;;;;;;;11.75;2.58;;;26.80;76.50;;;;;;5039962;28;20056;-80
2021/06/16 09:26:34;;;;;;;3.03;2.30;;;26.90;75.60;;;;;;5043873;28;20049;-80
2021/06/16 09:29:02;;;;;;;5.97;2.70;;;27.10;74.70;;;;;;5073984;28;20052;-80
2021/06/16 09:31:36;;;;;;;6.82;2.75;;;27.20;72.10;;;;;;5051325;28;20100;-80
2021/06/16 09:34:17;;;;;;;3.88;2.78;;;27.30;73.10;;;;;;5040434;28;20591;-80
2021/06/16 09:36:55;;;;;;;4.45;2.92;;;27.30;72.00;;;;;;5069322;28;20489;-80
2021/06/16 09:39:29;;;;;;;4.88;2.63;;;27.30;71.30;;;;;;5039290;28;21085;-80
2021/06/16 09:42:11;;;;;;;4.80;2.50;;;27.30;71.70;;;;;;5037776;28;20113;-80
2021/06/16 09:44:44;;;;;;;3.55;2.67;;;27.30;71.30;;;;;;5047731;28;20075;-80
2021/06/16 09:47:11;;;;;;;3.95;2.20;;;27.30;72.90;;;;;;5057375;28;20053;-80
2021/06/16 09:49:52;;;;;;;5.60;2.33;;;27.50;74.80;;;;;;5050267;28;20551;-80
2021/06/16 09:52:39;;;;;;;8.80;2.90;;;27.70;69.40;;;;;;5066310;28;20045;-79
2021/06/16 09:55:25;;;;;;;2.78;2.20;;;27.70;72.60;;;;;;5068196;28;20580;-79
2021/06/16 09:58:05;;;;;;;4.13;2.13;;;27.90;71.70;;;;;;5066864;28;20045;-79
2021/06/16 10:00:34;;;;;;;3.45;2.25;;;28.10;71.00;;;;;;5073996;28;20055;-79
2021/06/16 10:03:13;;;;;;;4.65;2.78;;;28.10;68.20;;;;;;5038502;28;20049;-79
2021/06/16 10:06:03;;;;;;;8.88;2.65;;;28.00;69.00;;;;;;5043024;28;20042;-79
2021/06/16 10:08:51;;;;;;;4.30;2.63;;;28.00;70.30;;;;;;5076698;28;20045;-79
2021/06/16 10:11:21;;;;;;;3.58;2.63;;;28.20;70.00;;;;;;5047714;28;20049;-80
2021/06/16 10:13:48;;;;;;;10.68;2.60;;;28.40;69.20;;;;;;5042530;28;20059;-79
2021/06/16 10:16:16;;;;;;;5.95;2.83;;;28.40;68.10;;;;;;5038762;28;20056;-80
2021/06/16 10:18:44;;;;;;;8.10;2.92;;;28.40;68.00;;;;;;5074686;28;20045;-80
2021/06/16 10:21:13;;;;;;;11.15;2.63;;;28.40;67.50;;;;;;5036092;28;20041;-79
2021/06/16 10:23:41;;;;;;;7.18;3.38;;;28.40;68.20;;;;;;5045453;28;20053;-79
2021/06/16 10:26:15;;;;;;;4.90;2.85;;;28.40;67.40;;;;;;5039956;28;20045;-79
2021/06/16 10:28:45;;;;;;;4.65;2.80;;;28.50;67.70;;;;;;5046399;28;20076;-79
2021/06/16 10:31:14;;;;;;;8.18;2.72;;;28.60;68.30;;;;;;5041175;28;20055;-80
2021/06/16 10:33:42;;;;;;;7.85;3.85;;;28.80;67.60;;;;;;5072869;28;20064;-80
2021/06/16 10:36:13;;;;;;;6.38;3.17;;;29.00;66.30;;;;;;5038069;28;20052;-79
2021/06/16 10:39:02;;;;;;;5.72;2.38;;;29.10;67.50;;;;;;5058339;28;20049;-80
2021/06/16 10:41:37;;;;;;;5.13;2.50;;;29.20;67.80;;;;;;5049299;28;20111;-80
2021/06/16 10:44:15;;;;;;;2.92;1.88;;;29.40;66.90;;;;;;5057150;28;20422;-80
2021/06/16 10:46:52;;;;;;;3.13;1.90;;;29.40;63.80;;;;;;5043532;28;20053;-79
2021/06/16 10:49:42;;;;;;;4.50;2.08;;;29.30;65.40;;;;;;5040795;28;20049;-79
2021/06/16 10:52:11;;;;;;;4.82;2.38;;;29.40;62.60;;;;;;5032772;28;20417;-80
2021/06/16 10:54:38;;;;;;;4.85;2.97;;;29.50;65.10;;;;;;5039540;28;20045;-80
2021/06/16 10:57:05;;;;;;;5.70;2.65;;;29.50;65.10;;;;;;5034333;28;20063;-79
2021/06/16 10:59:44;;;;;;;5.55;2.20;;;29.60;65.80;;;;;;5039814;28;20055;-80
2021/06/16 11:02:13;;;;;;;3.50;2.45;;;29.70;64.00;;;;;;5072065;28;20140;-80
2021/06/16 11:04:44;;;;;;;3.55;2.33;;;29.80;66.30;;;;;;5058675;28;20049;-80
2021/06/16 11:07:30;;;;;;;5.28;2.53;;;30.20;63.80;;;;;;5040080;28;20049;-80
2021/06/16 11:10:05;;;;;;;3.17;2.33;;;30.40;63.50;;;;;;5076099;28;20049;-79
2021/06/16 11:12:59;;;;;;;3.25;2.20;;;30.50;66.60;;;;;;5041698;28;20136;-80
2021/06/16 11:15:26;;;;;;;6.65;2.60;;;30.70;63.10;;;;;;5049530;28;20075;-80
2021/06/16 11:17:53;;;;;;;4.55;2.72;;;30.80;60.20;;;;;;5056041;28;20442;-79
2021/06/16 11:20:40;;;;;;;4.25;2.50;;;31.00;61.20;;;;;;5040517;28;20049;-80
2021/06/16 11:23:18;;;;;;;2.53;2.33;;;31.00;63.40;;;;;;5037955;28;20056;-80
2021/06/16 11:25:45;;;;;;;5.65;2.60;;;31.10;60.20;;;;;;5041360;28;20104;-80
2021/06/16 11:28:16;;;;;;;5.15;2.75;;;31.10;61.50;;;;;;5043032;28;20052;-80
2021/06/16 11:30:55;;;;;;;4.00;2.03;;;31.20;61.00;;;;;;5058039;28;20057;-80
2021/06/16 11:33:27;;;;;;;6.68;2.20;;;31.40;60.00;;;;;;5057534;28;20092;-80
2021/06/16 11:35:58;;;;;;;2.75;2.03;;;31.50;61.70;;;;;;5074703;28;20052;-80
2021/06/16 11:38:40;;;;;;;4.07;1.90;;;31.70;60.40;;;;;;5042827;28;20606;-79
2021/06/16 11:41:21;;;;;;;2.38;2.00;;;31.80;59.80;;;;;;5042140;28;20106;-80
2021/06/16 11:43:57;;;;;;;3.22;2.20;;;32.00;59.30;;;;;;5056326;28;20059;-80
2021/06/16 11:46:29;;;;;;;5.28;2.10;;;32.40;58.60;;;;;;5041782;28;20087;-80
2021/06/16 11:49:01;;;;;;;5.22;2.20;;;32.50;57.30;;;;;;5044004;28;20059;-80
2021/06/16 11:51:34;;;;;;;3.88;2.25;;;32.60;56.20;;;;;;5043730;28;20048;-80
2021/06/16 11:56:58;;;;;;;2.05;1.77;;;33.20;58.80;;;;;;5043795;28;20053;-80
2021/06/16 11:59:47;;;;;;;6.22;2.03;;;33.50;54.30;;;;;;5043065;28;20501;-80
2021/06/16 12:02:23;;;;;;;3.60;2.00;;;34.00;59.00;;;;;;5074364;28;20075;-80
2021/06/16 12:05:08;;;;;;;2.50;1.92;;;34.30;54.00;;;;;;5041068;28;20045;-80
2021/06/16 12:07:48;;;;;;;5.85;2.55;;;34.60;53.40;;;;;;5074272;28;20562;-80
2021/06/16 12:10:23;;;;;;;4.15;2.20;;;35.20;52.30;;;;;;5064214;28;20052;-80
2021/06/16 12:12:56;;;;;;;3.70;2.00;;;35.60;51.90;;;;;;5042395;28;20427;-80
2021/06/16 12:15:29;;;;;;;4.35;2.38;;;35.90;50.10;;;;;;5071163;28;20060;-81
2021/06/16 12:17:57;;;;;;;;;;;36.10;49.50;;;;;;5048514;28;20398;-82
2021/06/16 12:20:30;;;;;;;3.30;1.98;;;36.30;51.30;;;;;;5073320;28;20349;-80
2021/06/16 12:22:58;;;;;;;3.55;2.20;;;36.80;51.00;;;;;;5069539;28;20136;-81
2021/06/16 12:25:26;;;;;;;3.58;1.83;;;37.30;51.50;;;;;;5041026;28;20088;-81
2021/06/16 12:27:54;;;;;;;4.95;2.50;;;37.80;48.20;;;;;;5074801;28;20068;-80
2021/06/16 12:30:23;;;;;;;4.75;2.00;;;38.10;46.30;;;;;;5039981;28;20071;-80
2021/06/16 12:33:21;;;;;;;3.78;2.08;;;38.10;47.10;;;;;;5047077;28;20055;-81
2021/06/16 12:35:58;;;;;;;3.08;2.35;;;38.00;46.40;;;;;;5048048;28;20401;-81
2021/06/16 12:38:47;;;;;;;3.50;2.25;;;38.20;48.30;;;;;;5054398;28;20607;-81
2021/06/16 12:41:37;;;;;;;4.15;2.22;;;38.90;47.40;;;;;;5040207;28;20056;-81
2021/06/16 12:44:34;;;;;;;1.70;1.60;;;39.30;42.90;;;;;;5045418;28;20105;-81
2021/06/16 12:47:09;;;;;;;4.00;2.17;;;39.30;43.90;;;;;;5058391;28;20055;-81
2021/06/16 12:49:50;;;;;;;3.65;2.25;;;39.10;44.00;;;;;;5041501;28;20056;-81
2021/06/16 12:52:35;;;;;;;4.90;2.10;;;39.30;43.30;;;;;;5043691;28;20579;-81
2021/06/16 12:55:12;;;;;;;2.90;1.95;;;39.70;44.10;;;;;;5041501;28;20483;-81
2021/06/16 12:57:43;;;;;;;2.38;2.17;;;40.10;43.20;;;;;;5059216;28;20136;-81
2021/06/16 13:00:16;;;;;;;4.50;1.90;;;40.60;43.30;;;;;;5041557;28;20052;-81
2021/06/16 13:02:43;;;;;;;5.03;2.28;;;40.70;42.60;;;;;;5037446;28;20100;-81